Date,TemperatureHighF,TemperatureAvgF,TemperatureLowF,DewpointHighF,DewpointAvgF,DewpointLowF,HumidityHigh,HumidityAvg,HumidityLow,PressureMaxIn,PressureMinIn,WindSpeedMaxMPH,WindSpeedAvgMPH,GustSpeedMaxMPH,PrecipitationSumIn
2015-1-1,39.1,21.9,10.1,24.4,14.6,3.7,83,74,55,30.06,29.73,18,8,18,0.00
2015-1-2,27.5,18.8,6.3,21.9,11.4,-1.8,81,73,61,30.10,29.86,17,8,17,0.00
2015-1-3,36.2,24.2,11.5,26.7,18.6,4.5,87,79,67,29.98,29.70,25,10,25,0.00
2015-1-4,11.5,1.2,-6.3,4.5,-8.9,-14.7,74,63,44,30.42,29.98,22,10,22,0.00
2015-1-5,1.3,-2.2,-8.5,-3.5,-9.5,-16.4,81,71,63,30.45,30.19,13,6,15,0.00
2015-1-6,11.2,0.8,-8.1,0.6,-6.1,-12.5,82,73,60,30.47,30.17,24,10,25,0.00
2015-1-7,7.9,-2.6,-7.6,-6.9,-12.5,-17.1,75,63,43,30.77,30.35,20,10,20,0.00
2015-1-8,16.0,6.0,-6.1,12.8,-0.6,-12.5,87,74,60,30.35,29.54,32,14,32,0.00
2015-1-9,10.4,2.8,-3.8,-2.3,-6.0,-10.9,75,67,54,30.23,30.06,25,12,25,0.00
2015-1-10,24.1,7.4,-5.0,11.8,0.0,-10.5,80,72,59,30.15,29.86,12,5,12,0.00
2015-1-11,21.6,12.0,5.6,7.8,3.8,0.4,81,70,47,30.30,30.03,12,4,13,0.00
2015-1-12,22.0,5.3,-3.6,2.4,-6.8,-13.5,79,59,38,30.66,30.30,14,4,14,0.00
2015-1-13,20.2,6.6,-9.9,10.5,-2.4,-16.6,84,67,43,30.64,30.17,22,8,22,0.00
2015-1-14,27.2,20.8,14.9,20.0,14.9,10.7,85,78,62,30.17,29.88,15,8,15,0.00
2015-1-15,40.0,27.7,19.4,28.8,22.1,16.1,88,80,59,29.94,29.80,17,8,24,0.00
2015-1-16,31.3,27.8,22.0,26.0,23.5,19.1,90,84,75,29.93,29.56,22,6,22,0.00
2015-1-17,37.3,31.0,25.6,32.0,26.6,22.6,91,84,75,29.58,29.38,24,8,24,0.00
2015-1-18,45.0,32.8,24.7,30.3,25.8,20.9,88,76,55,29.86,29.56,15,5,15,0.00
2015-1-19,41.0,32.2,22.7,32.6,27.6,19.0,89,83,71,29.86,29.68,14,5,14,0.00
2015-1-20,32.8,30.5,28.1,29.0,27.1,25.0,90,87,81,29.86,29.72,9,5,9,0.00
2015-1-21,29.9,27.7,25.6,25.0,23.4,21.8,91,84,75,30.20,29.86,13,5,13,0.00
2015-1-22,28.4,23.7,13.3,24.0,19.0,10.2,87,82,64,30.29,30.04,17,9,17,0.00
2015-1-23,40.7,32.6,28.1,30.8,26.5,23.0,90,78,66,30.04,29.69,21,11,21,0.00
2015-1-24,46.6,35.0,28.4,34.5,30.1,26.2,91,83,62,29.69,29.47,10,5,10,0.00
2015-1-25,40.9,28.8,21.2,31.1,20.0,13.9,90,71,44,29.94,29.58,20,8,20,0.00
2015-1-26,50.2,35.8,21.6,37.2,29.2,17.2,89,78,58,29.88,29.59,19,8,19,0.00
2015-1-27,35.1,33.0,31.0,29.6,27.1,26.2,85,79,73,30.05,29.88,16,7,16,0.00
2015-1-28,31.7,30.0,28.1,28.2,26.7,24.7,91,87,85,30.00,29.68,16,8,16,0.00
2015-1-29,35.3,28.1,14.9,30.3,20.9,6.9,91,75,58,30.43,29.77,22,10,22,0.00
2015-1-30,31.3,20.8,12.1,20.4,13.2,6.1,83,73,54,30.43,30.02,15,7,15,0.00
2015-1-31,29.5,24.7,17.6,24.6,18.7,12.2,89,78,61,30.09,30.00,15,7,15,0.00
2015-2-1,22.7,15.5,5.0,12.1,5.2,-6.3,82,64,51,30.14,30.05,22,12,22,0.00
2015-2-2,17.5,8.3,-0.4,4.3,-1.9,-7.7,79,64,44,30.14,29.92,20,8,20,0.00
2015-2-3,18.9,11.8,5.0,12.9,6.8,0.5,84,80,72,29.98,29.90,8,3,8,0.00
2015-2-4,23.8,11.9,-4.3,10.1,3.0,-9.0,84,69,44,30.32,29.98,17,8,17,0.00
2015-2-5,21.4,8.5,-8.5,9.9,1.2,-12.9,82,73,59,30.30,29.94,25,11,25,0.00
2015-2-6,34.2,23.0,12.1,20.4,14.7,7.0,82,71,55,29.96,29.69,10,6,10,0.00
2015-2-7,41.2,28.6,20.3,30.0,22.5,15.9,86,78,64,29.69,29.42,12,5,12,0.00
2015-2-8,34.4,29.3,23.6,26.6,22.7,16.8,80,76,71,30.04,29.54,15,8,15,0.00
2015-2-9,48.1,30.6,20.3,24.2,18.5,15.1,81,64,36,30.17,30.04,10,4,10,0.00
2015-2-10,30.2,25.0,22.7,28.0,21.1,17.4,91,85,78,30.09,29.75,21,10,21,0.00
2015-2-11,30.2,17.6,2.2,28.0,9.4,-5.4,91,70,55,30.37,29.81,25,14,25,0.00
2015-2-12,17.6,6.6,-2.7,1.7,-3.5,-9.0,79,64,45,30.53,30.13,13,5,13,0.00
2015-2-13,33.7,19.7,6.8,22.0,12.2,1.7,81,73,61,30.13,29.85,18,11,19,0.00
2015-2-14,14.9,7.3,-0.9,4.3,-7.2,-11.9,68,52,37,30.47,29.95,18,10,18,0.00
2015-2-15,9.7,5.2,1.1,-0.1,-6.4,-11.8,65,58,50,30.49,30.15,14,9,14,0.00
2015-2-16,21.2,13.7,9.0,14.2,6.3,-0.1,80,72,64,30.15,29.89,13,8,13,0.00
2015-2-17,16.0,7.4,-1.1,1.9,-2.0,-10.8,78,65,47,29.94,29.80,21,10,21,0.00
2015-2-18,8.1,0.5,-5.6,-7.6,-11.1,-13.8,68,58,46,30.22,29.89,14,8,14,0.00
2015-2-19,21.6,10.1,-5.0,-2.0,-5.7,-13.9,65,50,31,30.25,29.99,12,7,12,0.00
2015-2-20,25.2,17.0,7.7,18.0,10.3,-2.0,84,75,64,29.99,29.66,20,9,20,0.00
2015-2-21,28.4,18.3,0.7,19.2,8.3,-9.3,85,66,46,30.26,29.72,16,8,16,0.00
2015-2-22,11.2,0.4,-7.0,-8.5,-12.5,-17.0,67,55,39,30.64,30.26,14,7,14,0.00
2015-2-23,23.2,15.0,-9.9,6.8,-1.4,-18.4,66,48,40,30.64,29.68,29,16,29,0.00
2015-2-24,37.4,27.5,14.0,24.9,10.7,2.1,82,51,30,29.80,29.56,25,13,25,0.00
2015-2-25,23.0,13.5,5.8,7.2,1.7,-6.3,75,59,46,30.15,29.79,14,7,14,0.00
2015-2-26,20.5,7.7,-3.2,1.0,-6.1,-11.3,69,54,39,30.37,30.16,10,6,10,0.00
2015-2-27,18.4,5.5,-8.1,2.8,-4.3,-13.2,78,64,50,30.45,30.37,13,6,13,0.00
2015-2-28,24.1,11.6,-0.9,8.2,1.7,-6.1,80,65,46,30.40,30.11,22,11,22,0.00
2015-3-1,30.8,21.0,12.8,16.0,11.3,6.8,84,67,45,30.28,30.11,21,13,21,0.00
2015-3-2,30.6,20.2,7.2,13.3,9.4,3.6,85,64,40,30.38,29.92,17,8,17,0.00
2015-3-3,32.0,21.5,6.5,23.4,13.5,-2.5,87,71,52,29.92,29.56,21,10,21,0.00
2015-3-4,17.8,5.9,-4.0,0.0,-5.8,-11.5,75,59,40,30.32,29.91,22,9,22,0.00
2015-3-5,22.7,8.5,-8.1,5.2,-2.4,-13.3,78,62,44,30.40,30.16,15,8,15,0.00
2015-3-6,44.1,25.7,10.1,23.0,13.8,2.6,76,62,40,30.13,29.90,15,10,15,0.00
2015-3-7,49.9,37.1,26.3,31.1,24.5,20.5,81,63,38,30.02,29.82,19,9,19,0.00
2015-3-8,53.8,40.4,29.5,33.7,29.1,23.7,87,66,40,30.01,29.92,18,9,18,0.00
2015-3-9,58.3,43.9,32.2,37.6,32.9,27.5,86,67,46,29.93,29.78,22,9,22,0.00
2015-3-10,68.4,48.8,34.9,41.6,32.8,25.5,76,56,31,30.02,29.72,18,9,18,0.00
2015-3-11,66.8,47.4,31.0,33.8,28.5,21.2,76,50,28,30.20,30.02,10,4,10,0.00
2015-3-12,63.4,50.5,39.1,48.6,39.1,30.9,74,65,56,30.15,29.93,20,12,20,0.00
2015-3-13,65.2,52.8,41.9,44.8,39.9,33.3,80,63,43,30.07,29.91,19,11,19,0.00
2015-3-14,70.6,52.6,33.7,39.2,34.2,28.7,85,53,28,30.09,29.99,13,6,13,0.00
2015-3-15,71.1,56.0,43.6,46.0,36.4,29.8,65,49,32,30.00,29.71,28,12,28,0.00
2015-3-16,64.1,52.0,37.1,45.1,38.0,19.7,76,60,35,30.18,29.61,27,8,27,0.00
2015-3-17,53.5,40.2,25.6,19.7,14.2,10.9,56,36,20,30.39,30.18,20,6,20,0.00
2015-3-18,46.8,37.6,29.5,29.9,19.6,12.1,79,50,28,30.23,30.09,11,3,11,0.00
2015-3-19,53.3,42.3,34.2,34.8,27.0,21.4,77,57,33,30.11,29.83,27,10,27,0.00
2015-3-20,62.1,44.4,30.6,37.4,33.0,27.6,89,67,36,29.95,29.74,25,8,25,0.00
2015-3-21,50.8,36.5,26.5,35.0,13.1,5.7,77,41,20,30.20,29.95,20,7,20,0.00
2015-3-22,36.0,31.8,29.0,25.7,16.8,8.6,87,56,38,30.20,30.09,22,8,22,0.00
2015-3-23,33.7,30.8,29.2,26.7,25.8,24.8,88,82,73,30.16,30.10,21,7,21,0.00
2015-3-24,37.4,31.2,24.8,28.8,25.3,20.4,91,79,64,30.10,29.78,22,11,22,0.00
2015-3-25,38.3,34.4,30.8,31.1,28.1,23.3,92,78,65,29.96,29.66,36,14,36,0.00
2015-3-26,38.9,31.3,24.8,23.7,19.3,10.9,77,62,43,30.10,29.95,16,8,16,0.00
2015-3-27,43.4,29.3,16.0,15.1,9.8,4.9,62,46,24,30.17,30.04,14,4,14,0.00
2015-3-28,45.4,33.4,20.3,25.3,17.8,9.0,69,53,37,30.13,29.79,25,10,25,0.00
2015-3-29,57.2,43.5,35.5,41.1,31.2,22.2,86,64,38,29.86,29.46,35,16,35,0.00
2015-3-30,66.2,45.8,34.2,41.2,32.7,27.4,78,62,39,29.87,29.64,19,7,19,0.00
2015-3-31,72.4,52.7,32.0,41.4,33.9,28.7,91,55,23,29.84,29.75,20,4,20,0.00
2015-4-1,83.2,62.7,45.2,55.4,39.7,30.1,83,47,22,29.75,29.33,49,16,49,0.00
2015-4-2,66.8,54.7,39.1,48.3,31.5,17.3,77,46,17,29.85,29.49,40,14,40,0.00
2015-4-3,51.5,37.9,28.1,26.9,17.5,10.0,70,47,21,30.08,29.85,19,9,19,0.00
2015-4-4,59.4,44.7,29.2,32.5,24.6,14.4,69,46,30,30.07,29.89,18,6,18,0.00
2015-4-5,57.4,45.2,35.6,33.1,25.9,20.3,74,48,29,29.92,29.79,24,9,24,0.00
2015-4-6,45.0,40.7,38.7,36.8,34.9,32.7,87,80,73,29.99,29.81,22,10,22,0.00
2015-4-7,41.8,39.7,37.4,34.1,31.6,26.9,87,73,57,30.05,29.89,17,9,17,0.00
2015-4-8,49.5,43.0,36.9,40.0,36.2,30.3,85,77,65,29.97,29.74,18,6,18,0.00
2015-4-9,42.1,38.6,34.2,37.9,35.2,31.0,90,88,79,29.76,29.57,23,7,23,0.00
2015-4-10,60.7,44.6,32.6,42.9,33.9,29.1,92,69,41,29.98,29.61,24,9,24,0.00
2015-4-11,70.2,53.7,36.5,43.4,37.4,30.3,81,57,35,30.02,29.77,28,12,28,0.00
2015-4-12,77.4,63.3,51.5,55.8,46.3,38.5,87,55,38,29.77,29.51,41,18,41,0.00
2015-4-13,66.6,55.3,44.6,46.1,31.8,19.6,86,46,18,30.05,29.68,33,11,33,0.00
2015-4-14,77.4,57.9,38.7,35.6,28.8,21.4,64,36,18,30.15,30.02,21,7,21,0.00
2015-4-15,70.9,59.2,45.4,32.3,28.3,23.5,53,33,18,30.10,29.99,31,10,31,0.00
2015-4-16,76.7,62.4,51.5,49.8,40.4,27.8,60,45,32,30.00,29.89,15,6,15,0.00
2015-4-17,84.4,66.1,49.0,51.9,42.3,29.6,80,47,20,30.02,29.91,17,4,17,0.00
2015-4-18,76.9,62.1,47.9,55.0,37.8,29.9,85,43,25,29.99,29.76,21,7,21,0.00
2015-4-19,61.4,52.1,45.4,55.2,45.4,37.5,88,78,66,29.76,29.47,26,10,26,0.00
2015-4-20,45.2,40.7,36.0,37.4,30.5,27.3,84,67,55,29.47,29.42,34,14,34,0.00
2015-4-21,42.7,37.5,34.9,31.1,27.0,23.8,78,66,51,29.69,29.43,34,14,34,0.00
2015-4-22,54.5,42.4,31.7,25.7,19.1,11.3,68,43,20,29.87,29.69,24,11,27,0.00
2015-4-23,63.9,46.4,28.4,23.2,15.2,6.2,62,32,12,29.98,29.84,19,5,19,0.00
2015-4-24,49.5,46.0,41.9,42.0,23.8,12.4,84,44,29,29.89,29.73,21,9,21,0.00
2015-4-25,43.7,43.2,42.8,40.2,39.3,38.5,88,86,84,29.70,29.68,21,11,21,0.00
2015-4-30,79.2,65.2,53.6,43.0,34.6,30.1,44,33,23,29.96,29.92,11,6,11,0.00
2015-5-1,68.4,57.5,49.3,52.5,42.7,31.0,79,58,43,29.98,29.84,23,9,23,0.00
2015-5-2,83.5,67.2,49.5,53.2,48.3,43.9,83,54,29,29.87,29.63,21,9,21,0.00
2015-5-3,91.3,67.1,55.4,63.5,52.9,44.1,81,62,34,29.85,29.63,24,8,24,0.00
2015-5-4,81.4,64.3,49.7,45.5,38.9,31.3,67,42,18,30.09,29.85,20,6,20,0.00
2015-5-5,69.5,58.9,49.3,54.1,44.8,31.3,88,61,47,30.10,30.01,26,11,26,0.00
2015-5-6,77.2,63.8,55.1,62.5,57.1,51.8,92,80,56,30.02,29.75,30,12,30,0.00
2015-5-7,78.3,66.7,61.7,65.3,60.1,57.3,89,80,61,29.76,29.57,28,12,28,0.00
2015-5-8,68.6,56.4,49.3,57.5,46.7,40.7,89,71,46,29.98,29.70,16,6,16,0.00
2015-5-9,78.8,59.9,43.4,52.2,44.4,37.6,81,59,35,30.07,29.96,22,7,22,0.00
2015-5-10,59.8,53.7,48.1,51.3,44.5,37.0,89,72,60,30.01,29.68,20,9,20,0.00
2015-5-11,55.3,49.8,44.5,52.2,45.7,41.5,91,86,75,29.68,29.54,22,12,22,0.00
2015-5-12,63.9,48.9,39.6,41.7,37.2,32.7,89,67,40,30.13,29.68,22,11,22,0.06
2015-5-13,68.0,50.2,43.6,43.2,37.6,35.1,76,63,39,30.30,30.10,25,10,25,0.00
2015-5-14,58.5,53.1,49.9,51.7,46.4,40.4,92,79,52,30.10,29.77,22,10,22,0.00
2015-5-15,73.8,60.6,53.6,56.7,52.4,50.2,92,76,51,29.90,29.77,10,4,10,0.00
2015-5-16,76.5,66.3,56.3,66.4,59.2,50.8,86,78,70,29.87,29.66,23,10,26,0.00
2015-5-17,75.2,66.2,47.7,64.2,59.4,40.1,89,79,64,29.72,29.44,40,17,40,0.00
2015-5-18,47.5,43.4,39.2,40.7,35.4,33.3,85,73,64,30.15,29.67,31,18,34,0.00
2015-5-19,67.3,49.3,36.0,42.9,35.1,30.4,81,60,36,30.30,30.14,18,6,18,0.00
2015-5-20,66.8,52.6,40.9,42.1,35.0,27.9,85,55,30,30.15,30.00,17,4,17,0.00
2015-5-21,79.2,60.2,40.9,47.4,38.2,33.2,80,48,23,30.00,29.92,20,7,20,0.00
2015-5-22,83.7,64.3,44.6,48.6,39.8,35.4,79,45,21,30.12,30.00,12,3,12,0.00
2015-5-23,77.6,63.7,51.3,54.2,46.6,38.8,73,55,34,30.17,30.02,17,5,17,0.00
2015-5-24,63.7,60.7,58.0,58.1,53.3,47.0,90,77,60,30.03,29.66,15,6,15,0.00
2015-5-25,73.8,63.9,57.8,61.2,57.7,54.5,92,81,63,29.69,29.55,21,7,21,0.00
2015-5-26,61.6,58.3,56.0,57.1,54.9,52.7,90,88,85,29.72,29.66,13,4,13,0.00
2015-5-27,86.0,69.2,54.7,62.9,56.2,52.1,91,67,34,29.94,29.72,17,6,17,0.00
2015-5-28,85.5,74.4,63.2,60.6,56.2,52.3,75,55,35,29.97,29.79,26,10,26,0.00
2015-5-29,71.8,65.0,53.8,63.7,59.7,49.0,88,83,65,29.96,29.76,22,9,22,0.00
2015-5-30,74.3,59.4,46.4,51.6,44.2,36.2,83,59,38,30.17,29.96,23,9,23,0.00
2015-5-31,70.7,55.7,43.2,44.1,37.2,31.6,68,51,34,30.20,30.10,14,6,14,0.00
2015-6-1,72.2,61.1,51.1,44.4,41.6,34.8,72,51,30,30.15,30.00,17,7,17,0.00
2015-6-2,77.6,66.4,55.1,57.9,50.7,40.8,69,57,47,30.01,29.80,27,12,27,0.00
2015-6-3,67.0,64.0,60.3,62.7,58.2,53.7,90,82,64,29.81,29.72,22,7,22,0.00
2015-6-4,79.9,66.4,59.4,65.6,60.3,56.5,91,81,59,29.97,29.80,10,4,10,0.00
2015-6-5,84.1,69.7,60.3,63.5,58.7,54.4,90,70,44,30.09,29.95,13,6,13,0.00
2015-6-6,79.7,69.4,59.8,63.6,58.0,53.5,88,68,53,30.05,29.59,27,12,27,0.00
2015-6-7,84.2,72.4,66.2,65.8,63.7,60.8,90,76,48,29.62,29.53,20,7,20,0.00
2015-6-19,70.9,70.9,70.9,60.2,60.2,60.2,69,69,69,29.59,29.59,13,13,14,0.00
2015-6-22,84.2,76.0,65.3,69.4,59.9,52.8,78,58,46,29.87,29.63,27,11,27,0.00
2015-6-23,85.9,72.0,59.8,60.0,56.1,52.7,83,59,35,30.03,29.87,14,6,14,0.00
2015-6-24,80.3,70.9,60.1,61.7,59.0,55.8,87,67,49,30.02,29.88,14,5,14,0.00
2015-6-25,91.3,75.7,62.1,68.9,61.6,57.3,86,64,41,29.94,29.87,15,4,15,0.00
2015-6-26,91.4,72.9,63.7,67.2,60.0,56.3,80,66,37,30.01,29.92,13,4,13,0.00
2015-6-27,85.3,72.0,58.3,65.6,59.0,54.3,88,66,41,30.00,29.79,14,5,14,0.00
2015-6-28,88.6,71.6,63.2,68.5,62.5,58.6,88,75,45,29.79,29.68,35,5,35,0.00
2015-6-29,87.1,73.7,63.0,69.5,63.9,58.9,90,73,49,29.75,29.68,18,5,18,0.00
2015-6-30,86.8,72.4,62.1,66.8,60.6,54.6,89,69,44,29.87,29.74,16,5,16,0.00
2015-7-1,76.7,65.1,59.4,55.2,51.6,46.5,74,63,43,29.93,29.85,13,4,13,0.00
2015-7-2,81.9,68.6,54.7,60.9,54.8,50.3,87,64,42,29.95,29.87,12,3,12,0.00
2015-7-3,80.1,69.4,57.4,62.1,58.0,53.6,87,69,49,29.89,29.81,15,6,15,0.00
2015-7-4,85.9,72.0,62.6,69.3,62.8,58.1,87,74,53,29.86,29.83,14,4,14,0.00
2015-7-5,79.7,69.9,65.5,68.6,61.6,59.2,80,75,68,29.86,29.77,19,8,19,0.00
2015-7-11,80.5,76.6,72.9,70.7,69.5,60.2,85,79,72,29.88,29.83,16,9,16,0.00
2015-7-12,90.7,78.6,66.8,77.9,71.7,62.7,88,80,65,29.87,29.59,39,10,39,0.00
2015-7-13,90.7,77.6,65.2,74.3,66.6,61.6,90,71,45,29.72,29.52,26,6,26,0.00
2015-7-14,94.7,79.2,68.4,72.4,66.0,58.5,84,66,43,29.86,29.57,15,6,15,0.00
2015-7-15,85.9,73.8,63.0,72.5,63.5,53.5,85,70,59,29.91,29.81,14,6,14,0.00
2015-7-16,72.4,68.8,67.3,67.2,64.7,63.6,90,87,81,29.84,29.59,16,7,18,0.00
2015-7-17,97.6,79.0,63.7,76.3,67.3,60.8,91,70,41,29.66,29.59,10,3,10,0.00
2015-7-18,88.9,77.1,67.7,70.8,64.7,56.6,88,67,44,29.81,29.56,38,13,38,0.00
2015-7-19,83.9,73.3,60.5,64.1,59.5,55.6,86,64,43,29.85,29.71,22,10,22,0.00
2015-7-20,85.0,75.0,66.6,64.7,60.4,54.1,86,62,41,29.83,29.66,28,8,28,0.00
2015-7-21,86.8,74.2,61.7,61.6,57.7,52.0,78,59,35,29.91,29.83,25,6,25,0.00
2015-7-22,85.1,74.1,63.0,63.7,59.9,56.5,81,63,43,29.89,29.82,26,7,26,0.00
2015-7-23,86.2,75.2,64.4,67.1,62.2,58.5,83,65,50,29.91,29.81,36,12,36,0.00
2015-7-24,87.1,74.6,65.7,74.3,66.8,62.4,90,77,62,29.86,29.70,37,15,37,0.00
2015-7-25,92.2,83.6,69.7,70.1,68.3,64.4,84,61,46,29.89,29.81,27,8,27,0.00
2015-7-26,92.0,79.7,71.3,73.6,67.3,64.6,82,67,46,29.87,29.78,17,6,17,0.00
2015-7-27,86.4,78.8,71.3,74.5,70.5,66.0,85,76,66,29.89,29.79,24,9,24,0.00
2015-7-28,76.5,73.4,70.4,70.9,69.9,67.1,90,86,82,29.82,29.69,29,11,29,0.00